Historique des mesures à Cassis (13260), France
Quotidien Résumé Juin 28, 2017 Unités:  Métrique    US   Métrique/US
« Précédent (Jour)
Suivant (Jour) »
Quotidien Hebdomadaire Mensuel Annuel Période au choix
  Maximum: Minimum: Moyenne:
Température: TemperatureC °C 19.5 °C 22.3 °C
Point de rosée: DewpointC °C 11.9 °C 15.8 °C
Humidité: Humidity % 49 % 64 %
Vitesse du vent: 0 km/h 0 km/h 13.5 km/h
Rafales: 0 km/h - -
Vent:- - SW
Pression: PressurehPa hPa 997.5 hPa -
Précipitations: 8.4 mm    
Historical Graphs
 
 
Mesures pour : Juin 28, 2017
Heure Temperature Point de rosée Pression Vent Vitesse du vent Rafales Humidité Pluie (par heure) Conditions
TemperatureC °C DewpointC °C PressurehPa hPa Calm     Humidity % HourlyPrecipMM mm SoftwareType W/m2
00:11 25.4 °C 20.0 °C 1002.6 hPa Calm     72 % 0.0 mm open2300-1.11 W/m2
01:11 25.3 °C 20.1 °C 1002.3 hPa SSE 4.2 km/h 4.2 km/h 73 % 0.0 mm open2300-1.11 W/m2
02:11 24.6 °C 19.0 °C 1001.9 hPa SE 5.1 km/h 9.3 km/h 71 % 0.0 mm open2300-1.11 W/m2
03:10 21.1 °C 17.3 °C 1001.2 hPa Calm     79 % 8.4 mm open2300-1.11 W/m2
04:10 20.6 °C 17.4 °C 1000.6 hPa NNE 6.4 km/h 8 km/h 82 % 0.0 mm open2300-1.11 W/m2
05:10 20.8 °C 17.4 °C 1000.2 hPa NE 1.8 km/h 9.3 km/h 81 % 0.0 mm open2300-1.11 W/m2
06:11 20.4 °C 17.2 °C 999.9 hPa NNW 2.3 km/h 2.3 km/h 82 % 0.0 mm open2300-1.11 W/m2
07:10 20.9 °C 17.7 °C 999.2 hPa ENE 2.9 km/h 7.6 km/h 82 % 0.0 mm open2300-1.11 W/m2
08:11 21.6 °C 17.2 °C 999.9 hPa WNW 30.7 km/h 30.7 km/h 76 % 0.0 mm open2300-1.11 W/m2
09:10 22.1 °C 17.7 °C 998.5 hPa NE 2.3 km/h 9.3 km/h 76 % 0.0 mm open2300-1.11 W/m2
10:11 24.6 °C 18.1 °C 999.2 hPa WNW 28.5 km/h 28.5 km/h 67 % 0.0 mm open2300-1.11 W/m2
11:10 24.7 °C 16.2 °C 999.5 hPa Calm   16.3 km/h 59 % 0.0 mm open2300-1.11 W/m2
12:11 24.9 °C 16.3 °C 999.2 hPa NNW 12.2 km/h 14 km/h 59 % 0.0 mm open2300-1.11 W/m2
13:10 27.2 °C 15.6 °C 998.5 hPa NW 27.2 km/h 27.2 km/h 49 % 0.0 mm open2300-1.11 W/m2
14:11 26.9 °C 15.6 °C 998.2 hPa NW 40.7 km/h 40.7 km/h 50 % 0.0 mm open2300-1.11 W/m2
15:10 25.3 °C 15.3 °C 998.2 hPa West 15 km/h 51.5 km/h 54 % 0.0 mm open2300-1.11 W/m2
16:10 24.5 °C 16.2 °C 997.9 hPa NW 19.2 km/h 32.3 km/h 60 % 0.0 mm open2300-1.11 W/m2
17:11 24.9 °C 14.7 °C 997.5 hPa WNW 16.9 km/h 29.5 km/h 53 % 0.0 mm open2300-1.11 W/m2
18:10 23.8 °C 16.1 °C 997.5 hPa NW 26.7 km/h 38.8 km/h 62 % 0.0 mm open2300-1.11 W/m2
19:11 23.8 °C 16.3 °C 997.5 hPa ESE 11.6 km/h 11.6 km/h 63 % 0.0 mm open2300-1.11 W/m2
20:10 23.2 °C 16.7 °C 998.5 hPa West 10.3 km/h 19.6 km/h 67 % 0.0 mm open2300-1.11 W/m2
21:11 21.4 °C 13.8 °C 999.2 hPa NW 47.3 km/h 60.3 km/h 62 % 0.0 mm open2300-1.11 W/m2
22:11 19.5 °C 12.0 °C 999.2 hPa WNW 17.9 km/h 29.5 km/h 62 % 0.0 mm open2300-1.11 W/m2
23:10 19.9 °C 11.9 °C 1000.2 hPa NW 10.3 km/h 31.4 km/h 60 % 0.0 mm open2300-1.11 W/m2
Observations météo à CASSIS
WU-History script by Weather Underground - 1 mb